Time;durP1;ratioP1;P1;durP2;ratioP2;P2;SDS_P1;SDS_P2;PMS_P1;PMS_P2;Temp;Humidity;BMP_temperature;BMP_pressure;BME280_temperature;BME280_humidity;BME280_pressure;Samples;Min_cycle;Max_cycle;Signal;HPM_P1;HPM_P2
2022/09/10 00:01:46;;;;;;;16.60;7.40;;;15.90;99.90;;;;;;4979178;28;20037;-81
2022/09/10 00:04:14;;;;;;;12.10;6.50;;;15.80;99.90;;;;;;4979232;28;20026;-82
2022/09/10 00:06:41;;;;;;;19.60;7.30;;;15.80;99.90;;;;;;4995584;28;20364;-82
2022/09/10 00:09:08;;;;;;;17.40;7.03;;;15.90;99.90;;;;;;4980410;28;20046;-83
2022/09/10 00:11:34;;;;;;;19.50;8.20;;;15.90;99.90;;;;;;4996441;28;20391;-83
2022/09/10 00:14:02;;;;;;;19.38;8.40;;;15.90;99.90;;;;;;4979223;28;20026;-82
2022/09/10 00:16:30;;;;;;;14.48;8.57;;;15.90;99.90;;;;;;4995732;28;20089;-81
2022/09/10 00:18:56;;;;;;;18.55;8.73;;;15.90;99.90;;;;;;4980255;28;20069;-83
2022/09/10 00:21:22;;;;;;;17.65;8.85;;;16.00;99.90;;;;;;4996539;28;20045;-81
2022/09/10 00:23:48;;;;;;;20.27;9.90;;;15.90;99.90;;;;;;4982189;28;20034;-81
2022/09/10 00:26:29;;;;;;;15.77;9.32;;;15.90;99.90;;;;;;4982206;28;20030;-82
2022/09/10 00:28:58;;;;;;;21.85;10.15;;;15.80;99.90;;;;;;4998591;28;20130;-82
2022/09/10 00:31:24;;;;;;;22.60;10.00;;;15.80;99.90;;;;;;4997416;28;20030;-83
2022/09/10 00:33:51;;;;;;;22.23;9.70;;;15.80;99.90;;;;;;4981732;28;20471;-83
2022/09/10 00:36:26;;;;;;;21.85;10.13;;;15.70;99.90;;;;;;4999676;28;20019;-83
2022/09/10 00:38:53;;;;;;;20.13;9.68;;;15.70;99.90;;;;;;4981199;28;20061;-82
2022/09/10 00:41:21;;;;;;;16.42;9.10;;;15.70;99.90;;;;;;4997141;28;20037;-83
2022/09/10 00:43:59;;;;;;;18.90;9.20;;;15.70;99.90;;;;;;4981217;28;20033;-83
2022/09/10 00:46:44;;;;;;;19.05;9.63;;;15.70;99.90;;;;;;4999475;28;20523;-83
2022/09/10 00:49:32;;;;;;;21.05;8.63;;;15.70;99.90;;;;;;5000026;28;20026;-82
2022/09/10 00:52:00;;;;;;;22.55;9.23;;;15.70;99.90;;;;;;4982040;28;20038;-82
2022/09/10 00:54:27;;;;;;;17.48;8.70;;;15.70;99.90;;;;;;4998625;28;20022;-82
2022/09/10 00:56:56;;;;;;;15.18;8.05;;;15.70;99.90;;;;;;4983244;28;20030;-82
2022/09/10 00:59:25;;;;;;;18.88;9.80;;;15.70;99.90;;;;;;4982784;28;20117;-82
2022/09/10 01:01:51;;;;;;;18.85;10.48;;;15.80;99.90;;;;;;4999447;28;20026;-82
2022/09/10 01:04:17;;;;;;;16.98;9.98;;;15.70;99.90;;;;;;4982525;28;20543;-83
2022/09/10 01:06:45;;;;;;;20.88;9.70;;;15.70;99.90;;;;;;4998938;28;20036;-83
2022/09/10 01:09:12;;;;;;;20.48;10.75;;;15.80;99.90;;;;;;5000001;28;20042;-83
2022/09/10 01:11:56;;;;;;;22.27;9.98;;;15.80;99.90;;;;;;4998347;28;20034;-83
2022/09/10 01:15:06;;;;;;;20.30;11.15;;;15.80;99.90;;;;;;4983097;28;20053;-82
2022/09/10 01:17:50;;;;;;;16.27;11.55;;;15.80;99.90;;;;;;4962819;28;20129;-82
2022/09/10 01:20:44;;;;;;;23.88;12.75;;;15.80;99.90;;;;;;4962374;28;20062;-82
2022/09/10 01:23:46;;;;;;;24.83;12.82;;;15.70;99.90;;;;;;4977128;28;20450;-82
2022/09/10 01:26:40;;;;;;;24.67;12.93;;;15.70;99.90;;;;;;4981156;28;20080;-83
2022/09/10 01:29:15;;;;;;;22.52;13.60;;;15.70;99.90;;;;;;4997934;28;20517;-83
2022/09/10 01:31:57;;;;;;;17.52;12.70;;;15.60;99.90;;;;;;4980031;28;20049;-82
2022/09/10 01:34:28;;;;;;;21.67;13.25;;;15.60;99.90;;;;;;4999150;28;20026;-83
2022/09/10 01:37:02;;;;;;;21.83;12.55;;;15.60;99.90;;;;;;4980553;28;20085;-82
2022/09/10 01:39:28;;;;;;;21.75;13.77;;;15.60;99.90;;;;;;4981328;28;20046;-82
2022/09/10 01:41:54;;;;;;;21.42;13.43;;;15.60;99.90;;;;;;4997662;28;20150;-82
2022/09/10 01:44:41;;;;;;;22.80;13.10;;;15.60;99.90;;;;;;4999448;28;20515;-82
2022/09/10 01:47:32;;;;;;;26.35;13.65;;;15.60;99.90;;;;;;4998752;28;20028;-82
2022/09/10 01:50:15;;;;;;;22.55;12.25;;;15.60;99.90;;;;;;4998903;28;20026;-82
2022/09/10 01:52:48;;;;;;;24.08;13.10;;;15.70;99.90;;;;;;4999200;28;20019;-83
2022/09/10 01:55:29;;;;;;;26.50;11.85;;;15.80;99.90;;;;;;4981859;28;20034;-83
2022/09/10 01:58:20;;;;;;;20.15;11.32;;;15.80;99.90;;;;;;4982132;28;20053;-82
2022/09/10 02:01:04;;;;;;;21.42;11.80;;;15.80;99.90;;;;;;4982306;28;20030;-82
2022/09/10 02:03:31;;;;;;;22.25;12.30;;;15.70;99.90;;;;;;4997985;28;20034;-83
2022/09/10 02:05:59;;;;;;;21.25;12.02;;;15.80;99.90;;;;;;4999405;28;20109;-83
2022/09/10 02:08:36;;;;;;;19.35;11.65;;;15.80;99.90;;;;;;4996009;28;20546;-83
2022/09/10 02:11:08;;;;;;;17.98;11.50;;;15.70;99.90;;;;;;4980094;28;20089;-82
2022/09/10 02:13:34;;;;;;;22.27;11.35;;;15.70;99.90;;;;;;4996966;28;20342;-83
2022/09/10 02:16:02;;;;;;;24.17;12.23;;;15.90;99.90;;;;;;4980551;28;20054;-81
2022/09/10 02:18:30;;;;;;;26.85;11.50;;;15.80;99.90;;;;;;4996647;28;20041;-83
2022/09/10 02:20:56;;;;;;;23.33;13.13;;;15.80;99.90;;;;;;4980009;28;20087;-85
2022/09/10 02:23:31;;;;;;;21.52;12.02;;;15.70;99.90;;;;;;4996063;28;20030;-83
2022/09/10 02:25:57;;;;;;;22.95;11.88;;;15.70;99.90;;;;;;4996641;28;20557;-84
2022/09/10 02:28:23;;;;;;;22.48;11.48;;;15.80;99.90;;;;;;4997971;28;20030;-83
2022/09/10 02:30:48;;;;;;;19.02;11.60;;;15.80;99.90;;;;;;4981743;28;20036;-83
2022/09/10 02:33:17;;;;;;;17.95;10.95;;;15.80;99.90;;;;;;4981409;28;20041;-82
2022/09/10 02:35:44;;;;;;;25.25;12.25;;;15.70;99.90;;;;;;4981396;28;20031;-83
2022/09/10 02:38:09;;;;;;;17.08;11.25;;;15.80;99.90;;;;;;4995416;28;20027;-82
2022/09/10 02:40:35;;;;;;;21.73;13.05;;;15.80;99.90;;;;;;4978869;28;20029;-82
2022/09/10 02:43:01;;;;;;;24.13;12.65;;;15.80;99.90;;;;;;4995653;28;20065;-83
2022/09/10 02:45:28;;;;;;;22.45;11.93;;;15.80;99.90;;;;;;4995592;28;20053;-82
2022/09/10 02:47:53;;;;;;;21.27;11.65;;;15.80;99.90;;;;;;4995612;28;20030;-83
2022/09/10 02:50:19;;;;;;;20.63;12.63;;;15.80;99.90;;;;;;4977717;28;20475;-85
2022/09/10 02:52:45;;;;;;;19.10;12.15;;;15.80;99.90;;;;;;4994988;28;20184;-82
2022/09/10 02:55:11;;;;;;;24.80;13.32;;;15.80;99.90;;;;;;4980393;28;20499;-82
2022/09/10 02:57:41;;;;;;;23.20;14.05;;;15.80;99.90;;;;;;4995270;28;20125;-83
2022/09/10 03:00:09;;;;;;;20.88;13.27;;;15.90;99.90;;;;;;4979556;28;20046;-83
2022/09/10 03:02:35;;;;;;;21.95;13.98;;;15.90;99.90;;;;;;4995898;28;20561;-83
2022/09/10 03:05:03;;;;;;;22.25;14.90;;;15.90;99.90;;;;;;4979350;28;20030;-82
2022/09/10 03:07:30;;;;;;;25.77;14.68;;;15.90;99.90;;;;;;4996045;28;20038;-82
2022/09/10 03:09:55;;;;;;;20.85;13.57;;;15.90;99.90;;;;;;4979783;28;20515;-83
2022/09/10 03:12:21;;;;;;;24.92;15.13;;;15.90;99.90;;;;;;4995797;28;20061;-83
2022/09/10 03:14:47;;;;;;;27.13;15.00;;;15.90;99.90;;;;;;4990501;28;20030;-82
2022/09/10 03:17:13;;;;;;;21.90;15.02;;;15.90;99.90;;;;;;4995820;28;20038;-83
2022/09/10 03:19:39;;;;;;;26.48;15.98;;;15.90;99.90;;;;;;4996033;28;20048;-83
2022/09/10 03:22:05;;;;;;;27.05;15.32;;;15.80;99.90;;;;;;5012551;28;20041;-83
2022/09/10 03:24:30;;;;;;;20.92;16.00;;;15.80;99.90;;;;;;4995416;28;20082;-82
2022/09/10 03:26:56;;;;;;;25.55;16.65;;;15.80;99.90;;;;;;5011952;28;20418;-82
2022/09/10 03:29:22;;;;;;;28.02;17.13;;;15.90;99.90;;;;;;4982894;28;20086;-83
2022/09/10 03:31:50;;;;;;;28.02;17.38;;;15.90;99.90;;;;;;4994554;28;20057;-83
2022/09/10 03:34:16;;;;;;;22.95;17.02;;;15.90;99.90;;;;;;4977353;28;20182;-83
2022/09/10 03:36:42;;;;;;;26.25;17.48;;;15.90;99.90;;;;;;4993068;28;20030;-83
2022/09/10 03:39:08;;;;;;;28.90;17.67;;;15.90;99.90;;;;;;4976983;28;20018;-83
2022/09/10 03:41:34;;;;;;;25.35;17.23;;;15.90;99.90;;;;;;4993497;28;20045;-83
2022/09/10 03:44:00;;;;;;;23.63;17.70;;;15.90;99.90;;;;;;4977374;28;20031;-83
2022/09/10 03:46:26;;;;;;;26.63;19.38;;;15.80;99.90;;;;;;4993644;28;20039;-83
2022/09/10 03:48:52;;;;;;;27.52;20.90;;;15.80;99.90;;;;;;4980254;28;20162;-83
2022/09/10 03:51:17;;;;;;;28.25;20.75;;;15.90;99.90;;;;;;4995604;28;20047;-83
2022/09/10 03:53:43;;;;;;;24.10;20.15;;;15.90;99.90;;;;;;4997574;28;20026;-82
2022/09/10 03:56:11;;;;;;;37.13;22.17;;;15.90;99.90;;;;;;4998473;28;20101;-83
2022/09/10 03:58:38;;;;;;;29.55;20.77;;;15.90;99.90;;;;;;4996855;28;20026;-83
2022/09/10 04:01:04;;;;;;;34.38;21.08;;;15.90;99.90;;;;;;4979153;28;20022;-83
2022/09/10 04:03:29;;;;;;;30.38;21.42;;;15.90;99.90;;;;;;4995649;28;20108;-83
2022/09/10 04:05:56;;;;;;;31.48;23.35;;;15.90;99.90;;;;;;4980169;28;20026;-83
2022/09/10 04:08:22;;;;;;;27.73;21.58;;;15.90;99.90;;;;;;4999399;28;20041;-82
2022/09/10 04:10:48;;;;;;;32.20;21.70;;;15.80;99.90;;;;;;5001120;28;20034;-82
2022/09/10 04:13:14;;;;;;;29.75;22.17;;;15.80;99.90;;;;;;4999374;28;20368;-83
2022/09/10 04:15:41;;;;;;;33.08;24.00;;;15.80;99.90;;;;;;4982900;28;20122;-82
2022/09/10 04:18:07;;;;;;;31.42;23.27;;;15.90;99.90;;;;;;5001349;28;20026;-82
2022/09/10 04:20:33;;;;;;;31.65;23.00;;;15.90;99.90;;;;;;4982026;28;20122;-82
2022/09/10 04:22:59;;;;;;;33.47;23.73;;;15.80;99.90;;;;;;4981180;28;20070;-82
2022/09/10 04:25:25;;;;;;;33.40;24.48;;;15.80;99.90;;;;;;4980881;28;20041;-82
2022/09/10 04:27:51;;;;;;;36.65;25.13;;;15.80;99.90;;;;;;4997303;28;20022;-82
2022/09/10 04:30:17;;;;;;;34.35;24.90;;;15.70;99.90;;;;;;4982966;28;20027;-82
2022/09/10 04:32:44;;;;;;;34.60;25.02;;;15.70;99.90;;;;;;4999103;28;20048;-82
2022/09/10 04:35:09;;;;;;;34.55;24.70;;;15.80;99.90;;;;;;4983168;28;20027;-83
2022/09/10 04:37:35;;;;;;;34.30;26.00;;;15.80;99.90;;;;;;4981854;28;20077;-83
2022/09/10 04:40:01;;;;;;;36.90;25.60;;;15.70;99.90;;;;;;5000098;28;20089;-83
2022/09/10 04:42:27;;;;;;;37.33;26.35;;;15.70;99.90;;;;;;4998423;28;20034;-84
2022/09/10 04:44:53;;;;;;;38.58;28.08;;;15.70;99.90;;;;;;4981686;28;20102;-83
2022/09/10 04:47:20;;;;;;;34.80;27.60;;;15.80;99.90;;;;;;4997799;28;20403;-83
2022/09/10 04:49:45;;;;;;;36.60;27.38;;;15.70;99.90;;;;;;4982383;28;20030;-83
2022/09/10 04:52:12;;;;;;;36.92;27.13;;;15.80;99.90;;;;;;4997712;28;20041;-83
2022/09/10 04:54:38;;;;;;;35.72;26.85;;;15.80;99.90;;;;;;4982500;28;20041;-83
2022/09/10 04:57:05;;;;;;;34.20;26.65;;;15.90;99.90;;;;;;4998456;28;20509;-82
2022/09/10 04:59:31;;;;;;;37.08;26.65;;;15.90;99.90;;;;;;4982277;28;20030;-83
2022/09/10 05:01:56;;;;;;;38.28;26.98;;;15.80;99.90;;;;;;4997246;28;20101;-83
2022/09/10 05:04:23;;;;;;;40.85;27.35;;;15.80;99.90;;;;;;4981438;28;20092;-83
2022/09/10 05:06:49;;;;;;;36.88;25.10;;;15.90;99.90;;;;;;4998803;28;20034;-82
2022/09/10 05:09:19;;;;;;;38.83;26.88;;;15.90;99.90;;;;;;4980943;28;20050;-82
2022/09/10 05:11:48;;;;;;;36.15;27.35;;;15.90;99.90;;;;;;4999313;28;20061;-83
2022/09/10 05:14:15;;;;;;;39.53;28.10;;;15.90;99.90;;;;;;4983277;28;20034;-83
2022/09/10 05:16:40;;;;;;;35.10;27.35;;;15.90;99.90;;;;;;5001325;28;20033;-83
2022/09/10 05:19:06;;;;;;;37.25;27.63;;;15.90;99.90;;;;;;4982709;28;20026;-83
2022/09/10 05:21:32;;;;;;;39.67;27.65;;;15.90;99.90;;;;;;4999397;28;20097;-83
2022/09/10 05:23:58;;;;;;;41.58;28.88;;;15.80;99.90;;;;;;4999243;28;20037;-83
2022/09/10 05:26:24;;;;;;;38.17;26.88;;;15.90;99.90;;;;;;4999247;28;20093;-83
2022/09/10 05:28:52;;;;;;;36.92;28.13;;;15.90;99.90;;;;;;4981355;28;20472;-83
2022/09/10 05:31:19;;;;;;;38.00;27.95;;;15.90;99.90;;;;;;4995197;28;20030;-82
2022/09/10 05:33:45;;;;;;;38.75;28.27;;;16.00;99.90;;;;;;4977755;28;20026;-82
2022/09/10 05:36:11;;;;;;;40.22;27.25;;;16.00;99.90;;;;;;4978321;28;20022;-82
2022/09/10 05:38:38;;;;;;;34.17;27.80;;;16.00;99.90;;;;;;4996495;28;20033;-82
2022/09/10 05:41:05;;;;;;;38.25;28.00;;;16.00;99.90;;;;;;4978166;28;20018;-82
2022/09/10 05:43:31;;;;;;;36.00;28.35;;;16.00;99.90;;;;;;4994208;28;20037;-82
2022/09/10 05:45:57;;;;;;;39.05;28.65;;;16.00;99.90;;;;;;4979738;28;20030;-83
2022/09/10 05:48:23;;;;;;;41.30;28.58;;;15.90;99.90;;;;;;4994735;28;20038;-83
2022/09/10 05:50:49;;;;;;;37.38;26.95;;;15.90;99.90;;;;;;4977690;28;20026;-83
2022/09/10 05:53:14;;;;;;;35.63;25.27;;;16.00;99.90;;;;;;4993908;28;20399;-83
2022/09/10 05:55:40;;;;;;;36.20;27.23;;;16.00;99.90;;;;;;4980632;28;20026;-83
2022/09/10 05:58:06;;;;;;;37.38;25.67;;;16.10;99.90;;;;;;4993463;28;20509;-83
2022/09/10 06:00:32;;;;;;;32.58;25.38;;;16.10;99.90;;;;;;4976926;28;20121;-82
2022/09/10 06:02:58;;;;;;;31.75;23.55;;;16.10;99.90;;;;;;4992995;28;20062;-82
2022/09/10 06:05:24;;;;;;;35.10;23.85;;;16.10;99.90;;;;;;4976442;28;20058;-82
2022/09/10 06:07:50;;;;;;;32.17;23.52;;;16.10;99.90;;;;;;4993256;28;20030;-82
2022/09/10 06:10:15;;;;;;;34.95;23.50;;;16.10;99.90;;;;;;4978984;28;20100;-84
2022/09/10 06:12:45;;;;;;;32.90;23.90;;;16.10;99.90;;;;;;4977127;28;20089;-83
2022/09/10 06:15:12;;;;;;;30.48;21.65;;;16.20;99.90;;;;;;4977623;28;20026;-83
2022/09/10 06:17:37;;;;;;;32.00;21.83;;;16.20;99.90;;;;;;4995102;28;20506;-83
2022/09/10 06:20:04;;;;;;;29.52;20.20;;;16.20;99.90;;;;;;4977413;28;20034;-83
2022/09/10 06:22:30;;;;;;;29.65;21.60;;;16.30;99.90;;;;;;4993701;28;20038;-83
2022/09/10 06:24:56;;;;;;;29.08;20.92;;;16.30;99.90;;;;;;4994152;28;20034;-83
2022/09/10 06:27:22;;;;;;;28.02;19.92;;;16.40;99.90;;;;;;4994195;28;20030;-85
2022/09/10 06:29:48;;;;;;;28.17;21.02;;;16.30;99.90;;;;;;4977655;28;20080;-84
2022/09/10 06:32:14;;;;;;;27.63;21.08;;;16.40;99.90;;;;;;4992251;28;20132;-84
2022/09/10 06:34:39;;;;;;;28.33;21.85;;;16.40;99.90;;;;;;4976641;28;20157;-84
2022/09/10 06:37:05;;;;;;;27.85;22.20;;;16.30;99.90;;;;;;4993765;28;20038;-84
2022/09/10 06:39:31;;;;;;;29.00;20.85;;;16.30;99.90;;;;;;4994450;28;20034;-84
2022/09/10 06:41:57;;;;;;;32.97;22.08;;;16.30;99.90;;;;;;4993132;28;20038;-83
2022/09/10 06:44:22;;;;;;;30.98;21.20;;;16.30;99.90;;;;;;4977122;28;20209;-83
2022/09/10 06:46:48;;;;;;;26.50;21.33;;;16.30;99.90;;;;;;4978162;28;20501;-84
2022/09/10 06:49:14;;;;;;;35.50;22.73;;;16.40;99.90;;;;;;4977823;28;20042;-84
2022/09/10 06:51:41;;;;;;;28.23;22.92;;;16.50;99.90;;;;;;4994445;28;20088;-84
2022/09/10 06:54:07;;;;;;;26.25;20.77;;;16.50;99.90;;;;;;4976970;28;20030;-84
2022/09/10 06:56:33;;;;;;;25.23;20.38;;;16.60;99.90;;;;;;4993699;28;20026;-84
2022/09/10 06:58:58;;;;;;;28.63;20.70;;;16.70;99.90;;;;;;4994861;28;20382;-84
2022/09/10 07:01:24;;;;;;;25.80;19.40;;;16.70;99.90;;;;;;4996165;28;20037;-84
2022/09/10 07:03:58;;;;;;;28.65;21.70;;;16.70;99.90;;;;;;4977131;28;20053;-84
2022/09/10 07:06:24;;;;;;;26.60;19.20;;;16.70;99.90;;;;;;4994537;28;20046;-84
2022/09/10 07:08:55;;;;;;;24.55;17.42;;;16.90;99.90;;;;;;4977236;28;20042;-84
2022/09/10 07:11:22;;;;;;;24.70;17.58;;;17.20;99.90;;;;;;4979838;28;20026;-84
2022/09/10 07:13:52;;;;;;;25.58;17.30;;;17.50;99.90;;;;;;4978468;28;20034;-84
2022/09/10 07:16:23;;;;;;;25.73;17.45;;;17.70;99.90;;;;;;4992139;28;20026;-84
2022/09/10 07:18:50;;;;;;;25.58;18.70;;;17.70;99.90;;;;;;4976691;28;20043;-82
2022/09/10 07:21:18;;;;;;;25.95;18.45;;;17.60;99.90;;;;;;4977191;28;20037;-82
2022/09/10 07:23:47;;;;;;;26.58;17.95;;;17.60;99.90;;;;;;4994428;28;20037;-83
2022/09/10 07:26:15;;;;;;;22.95;19.35;;;17.50;99.90;;;;;;4977134;28;20468;-83
2022/09/10 07:28:42;;;;;;;24.17;18.42;;;17.50;99.90;;;;;;4994117;28;20483;-83
2022/09/10 07:31:18;;;;;;;27.73;19.52;;;17.40;99.90;;;;;;4981831;28;20050;-83
2022/09/10 07:33:46;;;;;;;26.35;18.80;;;17.30;99.90;;;;;;5005171;28;20038;-83
2022/09/10 07:36:11;;;;;;;29.17;19.98;;;17.30;99.90;;;;;;5000108;28;20023;-83
2022/09/10 07:38:38;;;;;;;28.08;20.80;;;17.20;99.90;;;;;;5001286;28;20439;-83
2022/09/10 07:41:05;;;;;;;27.55;20.98;;;17.20;99.90;;;;;;4983564;28;20022;-83
2022/09/10 07:43:31;;;;;;;28.80;21.23;;;17.30;99.90;;;;;;4999421;28;20038;-83
2022/09/10 07:45:56;;;;;;;25.83;21.10;;;17.30;99.90;;;;;;4999730;28;20088;-83
2022/09/10 07:48:22;;;;;;;25.48;20.58;;;17.40;99.90;;;;;;5003227;28;20042;-84
2022/09/10 07:50:48;;;;;;;28.15;20.85;;;17.50;99.90;;;;;;4984845;28;20027;-84
2022/09/10 07:53:15;;;;;;;28.92;21.30;;;17.50;99.90;;;;;;4999242;28;20034;-84
2022/09/10 07:55:40;;;;;;;28.27;21.48;;;17.60;99.90;;;;;;5001455;28;20476;-84
2022/09/10 07:58:06;;;;;;;30.67;21.20;;;17.60;99.90;;;;;;5003483;28;20041;-84
2022/09/10 08:00:31;;;;;;;24.38;19.77;;;17.70;99.90;;;;;;4984564;28;20113;-84
2022/09/10 08:02:57;;;;;;;25.50;20.48;;;17.80;99.90;;;;;;4999797;28;20089;-84
2022/09/10 08:05:23;;;;;;;25.25;19.73;;;17.70;99.90;;;;;;4983045;28;20098;-84
2022/09/10 08:07:52;;;;;;;29.10;21.38;;;17.70;99.90;;;;;;5000972;28;20050;-84
2022/09/10 08:10:18;;;;;;;25.75;20.50;;;17.60;99.90;;;;;;4965068;28;20051;-83
2022/09/10 08:12:44;;;;;;;28.40;20.60;;;17.80;99.90;;;;;;4962404;29;20396;-83
2022/09/10 08:15:10;;;;;;;23.52;20.08;;;17.90;99.90;;;;;;4960871;29;20065;-83
2022/09/10 08:17:37;;;;;;;24.52;19.38;;;18.00;99.90;;;;;;4960482;28;20492;-83
2022/09/10 08:20:07;;;;;;;26.67;19.48;;;18.10;99.90;;;;;;4960527;28;20488;-83
2022/09/10 08:22:34;;;;;;;23.35;18.60;;;18.20;99.90;;;;;;4962119;28;20086;-83
2022/09/10 08:25:01;;;;;;;25.15;19.00;;;18.30;99.90;;;;;;4960720;29;20023;-83
2022/09/10 08:27:26;;;;;;;23.73;17.83;;;18.20;99.90;;;;;;4960633;28;20038;-83
2022/09/10 08:29:53;;;;;;;24.75;17.70;;;18.20;99.90;;;;;;4965009;29;20093;-84
2022/09/10 08:32:22;;;;;;;22.85;14.65;;;18.30;99.90;;;;;;4961788;28;20039;-84
2022/09/10 08:34:48;;;;;;;23.92;15.00;;;18.70;99.90;;;;;;4960426;29;20027;-84
2022/09/10 08:37:15;;;;;;;17.98;15.00;;;18.70;99.90;;;;;;4960622;28;20078;-84
2022/09/10 08:39:40;;;;;;;20.95;14.13;;;18.70;99.90;;;;;;4960843;28;20023;-84
2022/09/10 08:42:17;;;;;;;18.35;13.57;;;18.90;99.90;;;;;;4958561;28;20090;-84
2022/09/10 08:45:01;;;;;;;16.08;12.82;;;19.10;99.90;;;;;;4959044;28;20037;-84
2022/09/10 08:47:36;;;;;;;18.23;12.07;;;19.40;99.90;;;;;;4956960;29;20061;-84
2022/09/10 08:50:15;;;;;;;16.05;11.20;;;19.80;99.90;;;;;;4958574;29;20035;-84
2022/09/10 08:52:50;;;;;;;15.88;11.50;;;20.10;99.90;;;;;;4957527;29;20659;-84
2022/09/10 08:55:18;;;;;;;19.95;11.52;;;20.00;99.90;;;;;;4956382;29;20110;-84
2022/09/10 08:57:52;;;;;;;15.93;11.13;;;19.80;99.90;;;;;;4957950;29;20031;-84
2022/09/10 09:00:22;;;;;;;16.60;10.95;;;19.60;99.90;;;;;;4956423;29;20023;-84
2022/09/10 09:02:54;;;;;;;16.70;11.18;;;19.70;99.90;;;;;;4956805;29;20035;-84
2022/09/10 09:05:22;;;;;;;17.73;11.05;;;19.80;99.90;;;;;;4956747;29;20037;-84
2022/09/10 09:07:49;;;;;;;17.10;11.20;;;20.00;99.90;;;;;;4957297;28;20031;-84
2022/09/10 09:10:18;;;;;;;15.35;10.07;;;20.10;99.90;;;;;;4955683;28;20492;-84
2022/09/10 09:12:55;;;;;;;14.32;8.63;;;20.40;99.90;;;;;;4956557;29;20058;-84
2022/09/10 09:15:50;;;;;;;12.48;8.70;;;20.60;99.90;;;;;;4955830;29;20047;-84
2022/09/10 09:18:48;;;;;;;15.43;8.15;;;20.60;99.90;;;;;;4955996;29;20036;-84
2022/09/10 09:21:32;;;;;;;11.10;7.68;;;20.80;99.90;;;;;;4956505;29;20027;-84
2022/09/10 09:24:00;;;;;;;14.63;8.00;;;20.90;99.90;;;;;;4958194;29;20031;-82
2022/09/10 09:26:35;;;;;;;13.25;8.52;;;20.80;99.90;;;;;;4957029;29;20207;-82
2022/09/10 09:29:00;;;;;;;11.13;8.30;;;20.40;99.90;;;;;;4958258;28;20023;-82
2022/09/10 09:31:33;;;;;;;12.43;8.02;;;20.40;99.90;;;;;;4957041;29;20047;-82
2022/09/10 09:34:05;;;;;;;14.65;9.30;;;20.40;99.90;;;;;;4957364;29;20070;-82
2022/09/10 09:36:42;;;;;;;12.52;7.68;;;20.10;99.90;;;;;;4956489;29;20415;-82
2022/09/10 09:40:03;;;;;;;13.57;7.70;;;20.00;99.90;;;;;;4959705;28;20032;-84
2022/09/10 09:42:51;;;;;;;14.90;7.25;;;19.90;99.90;;;;;;4957774;29;20039;-82
2022/09/10 09:45:42;;;;;;;14.18;7.78;;;19.80;99.90;;;;;;4957412;29;20396;-82
2022/09/10 09:48:11;;;;;;;11.45;7.05;;;19.60;99.90;;;;;;4958241;29;20130;-84
2022/09/10 09:50:41;;;;;;;9.02;6.85;;;19.70;99.90;;;;;;4957408;29;20110;-83
2022/09/10 09:53:12;;;;;;;14.15;8.82;;;19.80;99.90;;;;;;4955930;28;20089;-83
2022/09/10 09:55:59;;;;;;;14.52;8.32;;;19.60;99.90;;;;;;4955494;29;20042;-83
2022/09/10 09:58:27;;;;;;;13.80;7.50;;;19.80;99.90;;;;;;4958809;29;20046;-84
2022/09/10 10:01:02;;;;;;;15.02;7.72;;;20.10;99.90;;;;;;4956178;29;20039;-84
2022/09/10 10:03:42;;;;;;;13.73;7.72;;;20.30;99.90;;;;;;4955598;29;20202;-84
2022/09/10 10:06:11;;;;;;;13.43;7.45;;;20.40;99.90;;;;;;4957827;29;20035;-84
2022/09/10 10:08:44;;;;;;;12.20;7.38;;;20.60;99.90;;;;;;4956092;28;20054;-84
2022/09/10 10:11:17;;;;;;;12.20;7.90;;;20.40;99.90;;;;;;4956782;29;20027;-84
2022/09/10 10:13:45;;;;;;;12.93;8.23;;;20.30;99.90;;;;;;4957499;29;20520;-83
2022/09/10 10:16:22;;;;;;;14.25;7.88;;;19.80;99.90;;;;;;4957342;29;20023;-82
2022/09/10 10:18:49;;;;;;;15.57;8.27;;;19.60;99.90;;;;;;4957937;29;20023;-82
2022/09/10 10:21:21;;;;;;;15.57;8.13;;;19.50;99.90;;;;;;4956214;29;20433;-82
2022/09/10 10:23:48;;;;;;;11.63;6.88;;;19.40;99.90;;;;;;4955058;29;20400;-82
2022/09/10 10:26:21;;;;;;;12.95;6.00;;;19.50;99.90;;;;;;4954649;29;20058;-83
2022/09/10 10:28:54;;;;;;;11.80;5.50;;;19.70;99.90;;;;;;4954805;29;20042;-82
2022/09/10 10:31:20;;;;;;;9.90;5.20;;;19.90;99.90;;;;;;4955186;29;20035;-82
2022/09/10 10:34:24;;;;;;;8.88;5.40;;;20.20;99.90;;;;;;4955513;29;20038;-82
2022/09/10 10:37:14;;;;;;;13.68;5.55;;;20.30;99.90;;;;;;4954553;29;20031;-82
2022/09/10 10:39:55;;;;;;;12.20;5.80;;;20.20;99.90;;;;;;4954863;29;20034;-82
2022/09/10 10:42:26;;;;;;;11.43;6.25;;;20.10;99.90;;;;;;4955048;29;20039;-82
2022/09/10 10:45:09;;;;;;;11.57;5.97;;;20.10;99.90;;;;;;4954958;29;20023;-82
2022/09/10 10:48:01;;;;;;;10.48;5.97;;;20.40;99.90;;;;;;4954499;29;20118;-82
2022/09/10 10:50:52;;;;;;;8.02;5.75;;;20.50;99.90;;;;;;4954434;29;20027;-82
2022/09/10 10:53:47;;;;;;;10.77;6.28;;;20.70;99.90;;;;;;4956678;29;20095;-83
2022/09/10 10:56:41;;;;;;;13.77;5.63;;;21.00;99.90;;;;;;4956337;29;20020;-83
2022/09/10 10:59:15;;;;;;;10.38;4.95;;;21.40;99.90;;;;;;4956813;29;20031;-84
2022/09/10 11:01:56;;;;;;;11.90;4.88;;;21.70;99.90;;;;;;4955445;29;20039;-84
2022/09/10 11:04:26;;;;;;;9.15;4.15;;;22.70;99.90;;;;;;4955813;28;20031;-84
2022/09/10 11:07:06;;;;;;;6.47;3.78;;;23.70;99.90;;;;;;4956547;29;20452;-84
2022/09/10 11:09:42;;;;;;;7.93;4.35;;;23.80;99.90;;;;;;4957343;28;20062;-83
2022/09/10 11:12:15;;;;;;;8.25;4.22;;;23.30;99.90;;;;;;4957695;29;20031;-84
2022/09/10 11:14:49;;;;;;;6.90;4.13;;;23.20;99.90;;;;;;4958848;28;20463;-85
2022/09/10 11:17:20;;;;;;;7.75;4.40;;;23.10;99.90;;;;;;4956561;28;20031;-85
2022/09/10 11:20:14;;;;;;;11.23;3.83;;;22.90;99.90;;;;;;4955054;28;20027;-84
2022/09/10 11:23:02;;;;;;;9.55;4.07;;;22.50;99.90;;;;;;4954354;29;20496;-84
2022/09/10 11:25:33;;;;;;;6.90;3.55;;;22.90;99.90;;;;;;4956417;29;20050;-84
2022/09/10 11:28:14;;;;;;;6.70;2.95;;;23.80;99.90;;;;;;4958280;29;20027;-84
2022/09/10 11:30:43;;;;;;;7.95;2.42;;;24.30;99.90;;;;;;4957721;29;20031;-84
2022/09/10 11:33:14;;;;;;;6.63;2.50;;;24.40;99.90;;;;;;4954992;29;20035;-84
2022/09/10 11:35:47;;;;;;;6.55;2.20;;;24.10;99.90;;;;;;4955162;29;20027;-84
2022/09/10 11:38:21;;;;;;;;;;;23.70;99.90;;;;;;4955705;29;20031;-84
2022/09/10 11:41:02;;;;;;;4.95;1.98;;;23.40;99.90;;;;;;4954855;29;19980;-84
2022/09/10 11:43:49;;;;;;;4.72;1.95;;;23.60;99.90;;;;;;4954212;29;20067;-84
2022/09/10 11:46:25;;;;;;;4.88;1.77;;;23.60;99.90;;;;;;4956181;29;20241;-83
2022/09/10 11:49:04;;;;;;;5.88;1.50;;;23.50;99.90;;;;;;4957220;29;20027;-82
2022/09/10 11:51:36;;;;;;;4.32;1.80;;;24.20;99.90;;;;;;4958137;29;20030;-82
2022/09/10 11:54:05;;;;;;;7.72;2.00;;;24.80;99.90;;;;;;4959054;29;20023;-82
2022/09/10 11:56:58;;;;;;;3.35;1.70;;;25.40;99.90;;;;;;4957354;29;20038;-84
2022/09/10 11:59:40;;;;;;;6.80;1.73;;;25.90;99.90;;;;;;4959160;29;20118;-86
2022/09/10 12:02:43;;;;;;;4.60;2.00;;;26.60;99.90;;;;;;4959823;29;20055;-85
2022/09/10 12:05:26;;;;;;;4.20;1.63;;;26.60;99.90;;;;;;4960083;29;20027;-85
2022/09/10 12:08:28;;;;;;;5.40;1.85;;;27.00;99.90;;;;;;4957849;29;20480;-84
2022/09/10 12:11:10;;;;;;;4.75;1.38;;;26.20;99.90;;;;;;4959277;29;20034;-85
2022/09/10 12:13:38;;;;;;;2.55;1.60;;;26.60;99.90;;;;;;4959756;29;20051;-84
2022/09/10 12:16:29;;;;;;;4.93;1.83;;;26.30;99.90;;;;;;4958837;28;20381;-84
2022/09/10 12:18:56;;;;;;;10.65;2.05;;;26.20;99.90;;;;;;4942299;29;20046;-85
2022/09/10 12:21:43;;;;;;;5.40;1.88;;;26.50;99.90;;;;;;4964631;28;20396;-85
2022/09/10 12:24:31;;;;;;;5.95;1.73;;;26.80;99.90;;;;;;4964258;29;20027;-85
2022/09/10 12:27:02;;;;;;;4.28;1.42;;;27.10;99.90;;;;;;4965354;29;20038;-85
2022/09/10 12:29:32;;;;;;;5.22;1.90;;;27.20;99.90;;;;;;4966333;28;20510;-84
2022/09/10 12:32:08;;;;;;;4.97;1.45;;;25.90;99.90;;;;;;4963972;29;20102;-84
2022/09/10 12:34:37;;;;;;;8.10;1.83;;;25.10;99.90;;;;;;4962049;29;20027;-83
2022/09/10 12:37:03;;;;;;;4.75;1.73;;;24.90;99.90;;;;;;4963153;29;20035;-85
2022/09/10 12:39:29;;;;;;;4.88;1.65;;;24.60;99.90;;;;;;4963982;29;20392;-84
2022/09/10 12:42:21;;;;;;;6.28;1.88;;;24.50;99.90;;;;;;4963692;28;20114;-84
2022/09/10 12:44:47;;;;;;;5.43;1.83;;;24.20;99.90;;;;;;4962920;29;20030;-85
2022/09/10 12:47:12;;;;;;;5.18;2.00;;;23.90;99.90;;;;;;4963788;29;20031;-84
2022/09/10 12:50:15;;;;;;;5.45;2.03;;;23.90;99.90;;;;;;4962657;29;20396;-84
2022/09/10 12:52:50;;;;;;;5.93;1.88;;;24.10;99.90;;;;;;4961285;29;20453;-84
2022/09/10 12:55:32;;;;;;;4.20;2.15;;;24.30;99.90;;;;;;4962471;29;20038;-84